createdAt,value
2023-03-11T00:01:45.633Z,2.17
2023-03-11T00:04:13.144Z,1.70
2023-03-11T00:06:40.391Z,2.33
2023-03-11T00:09:07.583Z,2.20
2023-03-11T00:11:34.809Z,1.70
2023-03-11T00:14:02.012Z,2.60
2023-03-11T00:16:29.214Z,2.37
2023-03-11T00:18:57.000Z,1.70
2023-03-11T00:21:24.178Z,1.77
2023-03-11T00:23:51.347Z,1.70
2023-03-11T00:26:18.493Z,1.63
2023-03-11T00:28:45.738Z,2.10
2023-03-11T00:31:13.968Z,1.20
2023-03-11T00:33:41.183Z,2.50
2023-03-11T00:36:08.705Z,1.77
2023-03-11T00:38:35.907Z,2.00
2023-03-11T00:41:03.196Z,1.70
2023-03-11T00:43:30.464Z,1.80
2023-03-11T00:45:57.671Z,1.90
2023-03-11T00:48:25.168Z,2.13
2023-03-11T00:50:52.371Z,2.40
2023-03-11T00:53:19.582Z,1.70
2023-03-11T00:55:46.722Z,2.13
2023-03-11T00:58:14.024Z,1.87
2023-03-11T01:00:41.258Z,1.80
2023-03-11T01:03:08.593Z,1.53
2023-03-11T01:05:36.219Z,2.13
2023-03-11T01:08:03.802Z,1.40
2023-03-11T01:10:31.831Z,1.80
2023-03-11T01:12:59.110Z,1.60
2023-03-11T01:15:28.822Z,1.63
2023-03-11T01:17:55.971Z,1.70
2023-03-11T01:20:23.290Z,1.80
2023-03-11T01:22:50.701Z,1.57
2023-03-11T01:25:19.858Z,1.70
2023-03-11T01:27:47.297Z,1.47
2023-03-11T01:30:16.634Z,1.77
2023-03-11T01:32:44.203Z,1.70
2023-03-11T01:35:13.172Z,1.33
2023-03-11T01:37:40.416Z,2.20
2023-03-11T01:40:09.200Z,1.60
2023-03-11T01:42:36.432Z,1.63
2023-03-11T01:45:04.164Z,1.70
2023-03-11T01:47:35.965Z,2.13
2023-03-11T01:50:04.259Z,1.90
2023-03-11T01:52:31.421Z,1.93
2023-03-11T01:54:58.564Z,2.10
2023-03-11T01:57:25.851Z,2.33
2023-03-11T01:59:57.738Z,2.53
2023-03-11T02:02:33.296Z,2.33
2023-03-11T02:05:01.989Z,2.13
2023-03-11T02:07:29.421Z,2.40
2023-03-11T02:09:56.552Z,2.60
2023-03-11T02:12:23.708Z,2.30
2023-03-11T02:14:53.888Z,2.13
2023-03-11T02:17:22.142Z,2.00
2023-03-11T02:19:55.232Z,1.83
2023-03-11T02:22:22.689Z,2.13
2023-03-11T02:25:09.334Z,2.53
2023-03-11T02:27:39.445Z,2.70
2023-03-11T02:30:07.219Z,2.50
2023-03-11T02:32:34.878Z,2.00
2023-03-11T02:35:02.054Z,2.07
2023-03-11T02:37:29.221Z,2.27
2023-03-11T02:39:56.988Z,2.43
2023-03-11T02:42:29.313Z,2.53
2023-03-11T02:44:59.790Z,1.40
2023-03-11T02:47:27.282Z,2.23
2023-03-11T02:49:55.770Z,1.70
2023-03-11T02:52:23.298Z,2.23
2023-03-11T02:54:50.516Z,1.80
2023-03-11T02:57:17.690Z,1.40
2023-03-11T02:59:45.022Z,1.40
2023-03-11T03:02:12.220Z,1.93
2023-03-11T03:04:39.413Z,1.83
2023-03-11T03:07:06.553Z,1.60
2023-03-11T03:09:34.302Z,1.67
2023-03-11T03:12:01.505Z,1.30
2023-03-11T03:14:28.667Z,1.80
2023-03-11T03:16:55.952Z,2.23
2023-03-11T03:19:23.193Z,2.10
2023-03-11T03:21:50.442Z,1.57
2023-03-11T03:24:17.590Z,1.43
2023-03-11T03:26:44.892Z,1.83
2023-03-11T03:29:12.085Z,1.63
2023-03-11T03:31:39.603Z,1.67
2023-03-11T03:34:06.776Z,1.57
2023-03-11T03:36:34.153Z,1.83
2023-03-11T03:39:01.592Z,1.70
2023-03-11T03:41:28.786Z,1.70
2023-03-11T03:43:56.006Z,1.60
2023-03-11T03:46:23.552Z,2.27
2023-03-11T03:48:50.897Z,1.83
2023-03-11T03:51:18.481Z,2.50
2023-03-11T03:53:48.569Z,1.27
2023-03-11T03:56:17.323Z,1.60
2023-03-11T03:58:44.586Z,1.80
2023-03-11T04:01:12.442Z,1.67
2023-03-11T04:03:40.013Z,1.73
2023-03-11T04:06:08.156Z,1.67
2023-03-11T04:08:35.424Z,1.50
2023-03-11T04:11:02.606Z,1.40
2023-03-11T04:13:29.850Z,1.80
2023-03-11T04:15:57.015Z,2.00
2023-03-11T04:18:24.224Z,2.20
2023-03-11T04:20:51.418Z,1.47
2023-03-11T04:23:18.570Z,1.80
2023-03-11T04:25:45.845Z,1.70
2023-03-11T04:28:12.998Z,1.73
2023-03-11T04:30:40.373Z,1.50
2023-03-11T04:33:07.692Z,1.60
2023-03-11T04:35:34.894Z,1.60
2023-03-11T04:38:02.306Z,1.57
2023-03-11T04:40:29.599Z,1.30
2023-03-11T04:42:56.828Z,1.43
2023-03-11T04:45:24.134Z,1.37
2023-03-11T04:47:52.626Z,1.33
2023-03-11T04:50:19.816Z,1.93
2023-03-11T04:52:47.369Z,1.33
2023-03-11T04:55:15.194Z,1.47
2023-03-11T04:57:42.727Z,2.53
2023-03-11T05:00:15.719Z,1.80
2023-03-11T05:02:43.399Z,1.87
2023-03-11T05:05:10.873Z,1.93
2023-03-11T05:07:38.142Z,2.27
2023-03-11T05:10:05.986Z,1.93
2023-03-11T05:12:33.697Z,1.83
2023-03-11T05:15:00.913Z,2.00
2023-03-11T05:17:28.039Z,2.00
2023-03-11T05:19:55.227Z,2.00
2023-03-11T05:22:22.831Z,1.70
2023-03-11T05:24:50.059Z,2.13
2023-03-11T05:27:21.293Z,1.83
2023-03-11T05:29:48.699Z,2.30
2023-03-11T05:32:15.922Z,1.77
2023-03-11T05:34:43.233Z,2.10
2023-03-11T05:37:10.362Z,1.70
2023-03-11T05:39:37.880Z,1.77
2023-03-11T05:42:05.582Z,2.43
2023-03-11T05:44:33.334Z,2.30
2023-03-11T05:47:00.707Z,1.90
2023-03-11T05:49:28.219Z,1.87
2023-03-11T05:51:58.137Z,1.77
2023-03-11T05:54:25.931Z,2.27
2023-03-11T05:56:53.152Z,1.83
2023-03-11T05:59:20.301Z,1.90
2023-03-11T06:01:47.756Z,1.97
2023-03-11T06:04:15.025Z,1.70
2023-03-11T06:06:42.725Z,1.50
2023-03-11T06:09:14.031Z,1.70
2023-03-11T06:11:41.212Z,2.03
2023-03-11T06:14:11.737Z,3.13
2023-03-11T06:16:38.977Z,3.40
2023-03-11T06:19:06.298Z,3.37
2023-03-11T06:21:33.895Z,2.93
2023-03-11T06:24:01.044Z,2.77
2023-03-11T06:26:28.201Z,2.87
2023-03-11T06:28:55.401Z,2.27
2023-03-11T06:31:25.169Z,2.23
2023-03-11T06:33:52.732Z,2.37
2023-03-11T06:36:20.960Z,2.40
2023-03-11T06:38:49.982Z,2.30
2023-03-11T06:41:17.301Z,2.33
2023-03-11T06:43:44.529Z,2.70
2023-03-11T06:46:13.124Z,2.40
2023-03-11T06:48:40.395Z,2.30
2023-03-11T06:51:07.846Z,2.30
2023-03-11T06:53:35.172Z,2.20
2023-03-11T06:56:03.943Z,2.87
2023-03-11T06:58:31.635Z,2.43
2023-03-11T07:01:06.392Z,2.57
2023-03-11T07:03:33.629Z,2.70
2023-03-11T07:06:01.056Z,2.30
2023-03-11T07:08:28.556Z,3.20
2023-03-11T07:11:01.912Z,3.17
2023-03-11T07:13:29.496Z,2.93
2023-03-11T07:16:11.146Z,2.77
2023-03-11T07:18:39.084Z,2.30
2023-03-11T07:21:07.425Z,2.83
2023-03-11T07:23:35.244Z,3.20
2023-03-11T07:26:02.705Z,3.03
2023-03-11T07:28:30.254Z,3.30
2023-03-11T07:30:57.655Z,3.23
2023-03-11T07:33:24.975Z,3.10
2023-03-11T07:35:52.373Z,2.97
2023-03-11T07:38:19.882Z,3.70
2023-03-11T07:40:47.364Z,3.47
2023-03-11T07:43:15.068Z,2.73
2023-03-11T07:45:42.328Z,2.53
2023-03-11T07:48:09.523Z,3.13
2023-03-11T07:50:36.704Z,3.20
2023-03-11T07:53:03.886Z,2.43
2023-03-11T07:55:31.160Z,2.60
2023-03-11T07:57:58.332Z,2.30
2023-03-11T08:00:25.669Z,1.97
2023-03-11T08:02:52.936Z,2.13
2023-03-11T08:05:20.897Z,3.80
2023-03-11T08:07:48.572Z,2.17
2023-03-11T08:10:15.803Z,2.20
2023-03-11T08:12:43.171Z,2.47
2023-03-11T08:15:10.654Z,2.10
2023-03-11T08:17:37.793Z,2.23
2023-03-11T08:20:07.402Z,1.90
2023-03-11T08:22:34.969Z,3.13
2023-03-11T08:25:02.307Z,2.43
2023-03-11T08:27:30.109Z,2.27
2023-03-11T08:29:57.348Z,2.20
2023-03-11T08:32:24.561Z,1.97
2023-03-11T08:34:51.720Z,2.13
2023-03-11T08:37:19.029Z,1.97
2023-03-11T08:39:46.173Z,2.00
2023-03-11T08:42:13.389Z,2.20
2023-03-11T08:44:40.556Z,2.30
2023-03-11T08:47:07.747Z,2.03
2023-03-11T08:49:35.271Z,2.37
2023-03-11T08:52:02.823Z,1.83
2023-03-11T08:54:29.985Z,1.80
2023-03-11T08:56:57.118Z,1.53
2023-03-11T08:59:24.278Z,1.93
2023-03-11T09:01:51.506Z,1.70
2023-03-11T09:04:18.683Z,1.13
2023-03-11T09:06:46.062Z,1.10
2023-03-11T09:09:13.233Z,1.10
2023-03-11T09:11:41.688Z,1.30
2023-03-11T09:14:09.000Z,1.23
2023-03-11T09:16:36.330Z,1.23
2023-03-11T09:19:07.073Z,1.93
2023-03-11T09:21:34.846Z,1.10
2023-03-11T09:24:04.326Z,1.30
2023-03-11T09:26:32.156Z,1.30
2023-03-11T09:28:59.311Z,1.33
2023-03-11T09:31:26.504Z,1.00
2023-03-11T09:33:55.545Z,1.13
2023-03-11T09:36:23.261Z,1.20
2023-03-11T09:38:50.416Z,1.30
2023-03-11T09:41:22.705Z,0.70
2023-03-11T09:44:16.092Z,1.07
2023-03-11T09:46:51.768Z,0.90
2023-03-11T09:49:30.050Z,1.20
2023-03-11T09:52:15.840Z,1.60
2023-03-11T09:54:48.000Z,1.50
2023-03-11T09:57:32.917Z,1.43
2023-03-11T10:00:02.573Z,1.23
2023-03-11T10:02:29.899Z,1.20
2023-03-11T10:05:04.219Z,0.93
2023-03-11T10:07:38.093Z,1.07
2023-03-11T10:10:05.531Z,1.40
2023-03-11T10:12:43.177Z,1.30
2023-03-11T10:15:18.571Z,1.00
2023-03-11T10:17:58.799Z,1.17
2023-03-11T10:20:25.930Z,1.30
2023-03-11T10:23:19.459Z,1.30
2023-03-11T10:25:55.827Z,1.47
2023-03-11T10:28:24.972Z,1.30
2023-03-11T10:30:54.171Z,1.30
2023-03-11T10:33:36.281Z,1.20
2023-03-11T10:36:14.165Z,1.17
2023-03-11T10:38:48.865Z,0.97
2023-03-11T10:41:29.723Z,1.37
2023-03-11T10:44:15.759Z,0.80
2023-03-11T10:46:42.873Z,1.20
2023-03-11T10:49:15.293Z,1.37
2023-03-11T10:51:45.837Z,1.50
2023-03-11T10:54:24.031Z,1.53
2023-03-11T10:57:01.789Z,1.20
2023-03-11T10:59:30.728Z,1.03
2023-03-11T11:01:59.558Z,1.07
2023-03-11T11:04:37.094Z,1.00
2023-03-11T11:07:23.457Z,1.00
2023-03-11T11:10:10.545Z,0.87
2023-03-11T11:12:37.769Z,1.00
2023-03-11T11:15:05.665Z,0.70
2023-03-11T11:17:34.524Z,1.10
2023-03-11T11:20:13.082Z,0.93
2023-03-11T11:22:48.414Z,3.03
2023-03-11T11:25:30.744Z,1.00
2023-03-11T11:28:03.497Z,1.30
2023-03-11T11:30:30.711Z,1.20
2023-03-11T11:33:02.951Z,1.83
2023-03-11T11:35:32.093Z,1.37
2023-03-11T11:38:04.214Z,1.47
2023-03-11T11:40:32.347Z,1.42
2023-03-11T11:42:59.734Z,1.90
2023-03-11T11:45:33.331Z,1.30
2023-03-11T11:48:03.877Z,1.42
2023-03-11T11:50:35.578Z,1.80
2023-03-11T11:53:06.869Z,1.67
2023-03-11T11:55:34.554Z,1.52
2023-03-11T11:58:01.875Z,1.35
2023-03-11T12:00:35.197Z,2.65
2023-03-11T12:03:05.200Z,2.17
2023-03-11T12:05:34.636Z,2.22
2023-03-11T12:08:01.861Z,1.85
2023-03-11T12:10:29.044Z,2.40
2023-03-11T12:12:59.010Z,2.88
2023-03-11T12:15:29.942Z,4.25
2023-03-11T12:18:02.111Z,2.92
2023-03-11T12:20:35.712Z,2.65
2023-03-11T12:23:02.888Z,1.88
2023-03-11T12:25:42.025Z,1.40
2023-03-11T12:28:22.547Z,1.77
2023-03-11T12:30:52.676Z,1.42
2023-03-11T12:33:40.690Z,1.67
2023-03-11T12:36:10.383Z,2.03
2023-03-11T12:38:40.279Z,1.20
2023-03-11T12:41:16.103Z,1.00
2023-03-11T12:43:42.845Z,1.42
2023-03-11T12:46:11.001Z,2.22
2023-03-11T12:48:41.068Z,1.80
2023-03-11T12:51:28.428Z,1.27
2023-03-11T12:53:56.309Z,1.45
2023-03-11T12:56:26.228Z,2.10
2023-03-11T12:58:53.456Z,1.42
2023-03-11T13:01:20.645Z,1.20
2023-03-11T13:04:02.234Z,1.30
2023-03-11T13:06:41.475Z,1.30
2023-03-11T13:09:14.540Z,1.10
2023-03-11T13:11:46.751Z,1.40
2023-03-11T13:14:22.791Z,0.88
2023-03-11T13:16:50.150Z,1.02
2023-03-11T13:19:32.517Z,1.05
2023-03-11T13:22:01.718Z,1.13
2023-03-11T13:24:31.856Z,1.20
2023-03-11T13:27:04.893Z,1.00
2023-03-11T13:29:45.093Z,1.00
2023-03-11T13:32:31.255Z,0.95
2023-03-11T13:35:18.078Z,2.17
2023-03-11T13:38:11.513Z,2.30
2023-03-11T13:40:46.418Z,2.65
2023-03-11T13:43:17.516Z,2.38
2023-03-11T13:45:49.470Z,2.33
2023-03-11T13:48:22.292Z,1.90
2023-03-11T13:50:55.807Z,1.77
2023-03-11T13:53:41.775Z,1.60
2023-03-11T13:56:18.019Z,2.17
2023-03-11T13:58:45.582Z,1.67
2023-03-11T14:01:16.663Z,1.55
2023-03-11T14:03:44.690Z,1.58
2023-03-11T14:06:21.479Z,1.50
2023-03-11T14:08:55.628Z,1.50
2023-03-11T14:11:27.194Z,1.30
2023-03-11T14:13:54.585Z,1.05
2023-03-11T14:16:23.631Z,1.10
2023-03-11T14:19:12.239Z,1.33
2023-03-11T14:21:42.922Z,1.30
2023-03-11T14:24:17.045Z,1.10
2023-03-11T14:26:44.418Z,1.00
2023-03-11T14:29:19.222Z,0.90
2023-03-11T14:31:47.343Z,1.50
2023-03-11T14:34:16.725Z,2.13
2023-03-11T14:36:44.272Z,1.02
2023-03-11T14:39:30.216Z,0.90
2023-03-11T14:42:04.818Z,1.27
2023-03-11T14:44:33.779Z,1.20
2023-03-11T14:47:07.511Z,1.40
2023-03-11T14:49:34.802Z,1.13
2023-03-11T14:52:08.699Z,0.80
2023-03-11T14:54:37.625Z,1.08
2023-03-11T14:57:08.302Z,1.50
2023-03-11T14:59:35.848Z,2.38
2023-03-11T15:02:21.779Z,1.40
2023-03-11T15:04:49.100Z,1.00
2023-03-11T15:07:17.211Z,1.33
2023-03-11T15:09:44.393Z,1.23
2023-03-11T15:12:30.707Z,1.92
2023-03-11T15:14:57.855Z,2.00
2023-03-11T15:17:38.490Z,1.80
2023-03-11T15:20:23.791Z,1.50
2023-03-11T15:22:58.161Z,2.17
2023-03-11T15:25:24.976Z,1.48
2023-03-11T15:27:51.802Z,1.30
2023-03-11T15:30:20.517Z,1.25
2023-03-11T15:32:48.698Z,2.00
2023-03-11T15:35:18.820Z,1.80
2023-03-11T15:37:47.643Z,2.50
2023-03-11T15:40:44.072Z,1.50
2023-03-11T15:43:15.246Z,3.00
2023-03-11T15:45:43.330Z,3.20
2023-03-11T15:48:11.266Z,2.83
2023-03-11T15:50:52.823Z,2.03
2023-03-11T15:53:21.891Z,1.23
2023-03-11T15:55:49.223Z,1.00
2023-03-11T15:58:17.571Z,1.27
2023-03-11T16:00:56.515Z,1.40
2023-03-11T16:03:24.531Z,1.73
2023-03-11T16:05:51.701Z,1.00
2023-03-11T16:08:18.877Z,4.07
2023-03-11T16:10:46.129Z,1.13
2023-03-11T16:13:14.008Z,4.17
2023-03-11T16:15:42.336Z,1.40
2023-03-11T16:18:10.584Z,0.93
2023-03-11T16:20:42.461Z,1.10
2023-03-11T16:23:13.588Z,1.07
2023-03-11T16:25:41.573Z,1.10
2023-03-11T16:28:11.232Z,0.97
2023-03-11T16:30:38.381Z,1.10
2023-03-11T16:33:08.743Z,0.97
2023-03-11T16:35:36.032Z,1.47
2023-03-11T16:38:03.279Z,0.97
2023-03-11T16:40:30.785Z,1.23
2023-03-11T16:43:02.798Z,1.33
2023-03-11T16:45:30.080Z,0.93
2023-03-11T16:47:57.344Z,1.23
2023-03-11T16:50:24.582Z,0.87
2023-03-11T16:52:52.752Z,1.47
2023-03-11T16:55:20.252Z,1.20
2023-03-11T16:57:47.516Z,1.20
2023-03-11T17:00:18.270Z,1.47
2023-03-11T17:02:45.656Z,1.90
2023-03-11T17:05:13.196Z,1.80
2023-03-11T17:07:40.543Z,1.83
2023-03-11T17:10:08.524Z,1.40
2023-03-11T17:12:36.097Z,1.67
2023-03-11T17:15:03.861Z,1.33
2023-03-11T17:17:31.018Z,2.37
2023-03-11T17:19:58.276Z,1.60
2023-03-11T17:22:25.472Z,2.30
2023-03-11T17:24:52.633Z,2.13
2023-03-11T17:27:19.792Z,2.20
2023-03-11T17:29:47.045Z,2.00
2023-03-11T17:32:17.563Z,1.73
2023-03-11T17:34:45.274Z,1.53
2023-03-11T17:37:12.451Z,1.43
2023-03-11T17:39:39.577Z,1.40
2023-03-11T17:42:06.852Z,1.23
2023-03-11T17:44:50.168Z,1.30
2023-03-11T17:47:19.760Z,1.37
2023-03-11T17:49:47.366Z,1.10
2023-03-11T17:52:14.554Z,1.40
2023-03-11T17:54:41.720Z,1.47
2023-03-11T17:57:08.917Z,2.20
2023-03-11T17:59:36.126Z,1.33
2023-03-11T18:02:03.513Z,1.27
2023-03-11T18:04:30.665Z,1.20
2023-03-11T18:06:57.832Z,5.10
2023-03-11T18:09:25.281Z,2.00
2023-03-11T18:11:52.474Z,2.00
2023-03-11T18:14:19.673Z,1.33
2023-03-11T18:16:46.865Z,1.60
2023-03-11T18:19:14.051Z,1.37
2023-03-11T18:21:41.258Z,4.17
2023-03-11T18:24:09.663Z,2.70
2023-03-11T18:26:36.885Z,1.53
2023-03-11T18:29:04.191Z,2.33
2023-03-11T18:31:31.447Z,2.10
2023-03-11T18:34:00.192Z,1.80
2023-03-11T18:36:28.475Z,1.60
2023-03-11T18:38:56.976Z,2.10
2023-03-11T18:41:24.701Z,2.23
2023-03-11T18:43:57.450Z,2.27
2023-03-11T18:46:28.498Z,2.50
2023-03-11T18:48:59.262Z,2.90
2023-03-11T18:51:27.646Z,2.67
2023-03-11T18:53:54.867Z,2.90
2023-03-11T18:56:22.072Z,2.97
2023-03-11T18:58:49.266Z,2.93
2023-03-11T19:01:17.975Z,2.83
2023-03-11T19:03:45.876Z,3.90
2023-03-11T19:06:13.746Z,3.73
2023-03-11T19:08:40.978Z,4.50
2023-03-11T19:11:08.886Z,4.67
2023-03-11T19:13:46.777Z,5.43
2023-03-11T19:16:15.627Z,4.13
2023-03-11T19:18:42.828Z,4.17
2023-03-11T19:21:11.949Z,3.13
2023-03-11T19:23:39.226Z,3.17
2023-03-11T19:26:06.409Z,3.40
2023-03-11T19:28:33.648Z,3.40
2023-03-11T19:31:00.903Z,3.53
2023-03-11T19:33:28.262Z,3.77
2023-03-11T19:35:57.071Z,3.47
2023-03-11T19:38:24.927Z,4.67
2023-03-11T19:40:53.090Z,3.67
2023-03-11T19:43:20.444Z,3.97
2023-03-11T19:45:49.206Z,2.97
2023-03-11T19:48:16.524Z,3.73
2023-03-11T19:50:43.716Z,3.93
2023-03-11T19:53:10.852Z,3.07
2023-03-11T19:55:38.127Z,3.47
2023-03-11T19:58:05.309Z,3.57
2023-03-11T20:00:32.693Z,3.53
2023-03-11T20:03:02.221Z,4.07
2023-03-11T20:05:29.702Z,4.47
2023-03-11T20:07:56.958Z,4.80
2023-03-11T20:10:24.146Z,5.53
2023-03-11T20:13:01.750Z,5.07
2023-03-11T20:15:29.976Z,5.67
2023-03-11T20:17:57.156Z,5.07
2023-03-11T20:20:24.629Z,4.90
2023-03-11T20:22:51.861Z,5.17
2023-03-11T20:25:19.108Z,5.10
2023-03-11T20:27:46.359Z,3.83
2023-03-11T20:30:14.329Z,4.87
2023-03-11T20:32:41.569Z,4.87
2023-03-11T20:35:08.942Z,4.43
2023-03-11T20:37:36.122Z,4.00
2023-03-11T20:40:03.607Z,4.57
2023-03-11T20:42:32.187Z,4.70
2023-03-11T20:44:59.579Z,4.13
2023-03-11T20:47:26.792Z,4.13
2023-03-11T20:49:54.821Z,3.70
2023-03-11T20:52:22.124Z,4.57
2023-03-11T20:54:49.384Z,4.00
2023-03-11T20:57:16.747Z,8.67
2023-03-11T20:59:43.955Z,5.63
2023-03-11T21:02:12.349Z,5.17
2023-03-11T21:04:41.264Z,4.63
2023-03-11T21:07:08.596Z,4.90
2023-03-11T21:09:35.796Z,4.17
2023-03-11T21:12:02.983Z,5.27
2023-03-11T21:14:30.291Z,5.03
2023-03-11T21:16:57.587Z,4.60
2023-03-11T21:19:24.830Z,4.83
2023-03-11T21:21:52.027Z,4.57
2023-03-11T21:24:19.423Z,5.17
2023-03-11T21:26:46.798Z,4.67
2023-03-11T21:29:14.234Z,4.50
2023-03-11T21:31:41.587Z,4.87
2023-03-11T21:34:11.422Z,5.03
2023-03-11T21:36:38.897Z,4.73
2023-03-11T21:39:06.785Z,5.23
2023-03-11T21:41:33.996Z,4.57
2023-03-11T21:44:01.465Z,5.20
2023-03-11T21:46:30.136Z,4.50
2023-03-11T21:48:57.450Z,5.10
2023-03-11T21:51:24.892Z,5.43
2023-03-11T21:53:52.091Z,5.03
2023-03-11T21:56:19.359Z,4.70
2023-03-11T21:58:46.732Z,4.77
2023-03-11T22:01:14.256Z,5.30
2023-03-11T22:03:41.812Z,4.13
2023-03-11T22:06:11.457Z,4.20
2023-03-11T22:08:38.912Z,4.57
2023-03-11T22:11:10.020Z,6.23
2023-03-11T22:13:37.218Z,4.40
2023-03-11T22:16:05.695Z,4.57
2023-03-11T22:18:33.010Z,3.93
2023-03-11T22:21:00.479Z,4.07
2023-03-11T22:23:28.288Z,4.23
2023-03-11T22:25:55.817Z,4.10
2023-03-11T22:28:23.133Z,3.30
2023-03-11T22:30:50.297Z,3.63
2023-03-11T22:33:17.498Z,3.70
2023-03-11T22:35:54.854Z,4.43
2023-03-11T22:38:22.461Z,4.17
2023-03-11T22:40:49.614Z,5.17
2023-03-11T22:43:16.773Z,4.33
2023-03-11T22:45:45.318Z,4.57
2023-03-11T22:48:12.549Z,4.60
2023-03-11T22:50:44.389Z,4.87
2023-03-11T22:53:12.557Z,4.03
2023-03-11T22:55:43.331Z,4.33
2023-03-11T22:58:11.246Z,4.40
2023-03-11T23:00:38.782Z,5.23
2023-03-11T23:03:06.136Z,4.27
2023-03-11T23:05:40.806Z,4.83
2023-03-11T23:08:11.999Z,4.50
2023-03-11T23:10:43.101Z,4.80
2023-03-11T23:13:10.685Z,4.60
2023-03-11T23:15:40.329Z,4.40
2023-03-11T23:18:07.582Z,4.57
2023-03-11T23:20:36.496Z,4.40
2023-03-11T23:23:04.357Z,4.87
2023-03-11T23:25:31.569Z,5.03
2023-03-11T23:27:58.804Z,5.63
2023-03-11T23:30:26.002Z,8.83
2023-03-11T23:32:53.263Z,5.77
2023-03-11T23:35:20.670Z,5.73
2023-03-11T23:37:49.082Z,5.00
2023-03-11T23:40:16.539Z,5.30
2023-03-11T23:42:43.723Z,5.00
2023-03-11T23:45:11.156Z,5.10
2023-03-11T23:47:38.423Z,5.03
2023-03-11T23:50:05.993Z,5.30
2023-03-11T23:52:33.516Z,5.10
2023-03-11T23:55:00.709Z,4.43
2023-03-11T23:57:27.868Z,9.17
2023-03-11T23:59:55.025Z,5.23
